createdAt,value
2022-11-26T00:01:21.897Z,80.35
2022-11-26T00:03:50.000Z,78.95
2022-11-26T00:06:28.296Z,79.78
2022-11-26T00:08:55.267Z,84.72
2022-11-26T00:11:22.274Z,79.43
2022-11-26T00:13:49.661Z,80.45
2022-11-26T00:16:16.832Z,84.05
2022-11-26T00:18:44.146Z,86.35
2022-11-26T00:21:38.358Z,87.90
2022-11-26T00:24:05.818Z,87.65
2022-11-26T00:26:33.375Z,84.55
2022-11-26T00:29:01.387Z,74.13
2022-11-26T00:31:29.422Z,74.40
2022-11-26T00:33:56.883Z,80.78
2022-11-26T00:36:30.584Z,81.10
2022-11-26T00:39:01.787Z,69.43
2022-11-26T00:41:34.612Z,69.55
2022-11-26T00:44:02.033Z,75.78
2022-11-26T00:46:28.974Z,66.28
2022-11-26T00:48:55.934Z,74.30
2022-11-26T00:51:27.924Z,82.47
2022-11-26T00:53:57.604Z,92.18
2022-11-26T00:56:24.739Z,76.13
2022-11-26T00:58:52.076Z,86.72
2022-11-26T01:01:21.946Z,71.60
2022-11-26T01:03:49.140Z,78.20
2022-11-26T01:06:19.173Z,67.28
2022-11-26T01:08:46.953Z,78.60
2022-11-26T01:11:17.569Z,77.78
2022-11-26T01:13:45.705Z,76.68
2022-11-26T01:16:18.477Z,74.07
2022-11-26T01:18:46.035Z,83.07
2022-11-26T01:21:13.254Z,60.33
2022-11-26T01:23:40.175Z,77.68
2022-11-26T01:26:07.709Z,76.65
2022-11-26T01:28:34.642Z,80.43
2022-11-26T01:31:01.626Z,89.47
2022-11-26T01:33:28.611Z,83.07
2022-11-26T01:35:55.533Z,62.63
2022-11-26T01:38:22.498Z,78.53
2022-11-26T01:41:03.831Z,70.95
2022-11-26T01:43:42.137Z,70.60
2022-11-26T01:46:17.763Z,73.63
2022-11-26T01:48:45.326Z,78.70
2022-11-26T01:51:13.570Z,77.53
2022-11-26T01:53:47.963Z,56.30
2022-11-26T01:56:34.539Z,87.93
2022-11-26T01:59:17.885Z,75.18
2022-11-26T02:01:45.209Z,77.63
2022-11-26T02:04:26.098Z,76.25
2022-11-26T02:09:20.500Z,80.65
2022-11-26T02:11:47.992Z,75.85
2022-11-26T02:14:21.800Z,77.45
2022-11-26T02:17:05.219Z,75.25
2022-11-26T02:19:38.153Z,72.88
2022-11-26T02:22:28.211Z,72.90
2022-11-26T02:25:20.076Z,73.67
2022-11-26T02:28:09.496Z,74.28
2022-11-26T02:30:39.612Z,74.97
2022-11-26T02:33:40.706Z,78.20
2022-11-26T02:36:21.753Z,82.03
2022-11-26T02:38:48.751Z,82.75
2022-11-26T02:41:15.729Z,90.90
2022-11-26T02:43:43.222Z,75.72
2022-11-26T02:46:13.493Z,89.43
2022-11-26T02:48:43.700Z,78.47
2022-11-26T02:51:18.938Z,74.20
2022-11-26T02:53:46.822Z,69.80
2022-11-26T02:56:21.171Z,83.22
2022-11-26T02:58:49.780Z,103.60
2022-11-26T03:01:21.723Z,112.07
2022-11-26T03:03:51.345Z,75.45
2022-11-26T03:06:19.454Z,71.80
2022-11-26T03:08:46.513Z,74.45
2022-11-26T03:11:13.830Z,65.20
2022-11-26T03:13:40.808Z,67.72
2022-11-26T03:16:08.086Z,69.72
2022-11-26T03:18:35.063Z,71.03
2022-11-26T03:21:02.077Z,78.22
2022-11-26T03:23:29.085Z,82.93
2022-11-26T03:25:56.027Z,96.20
2022-11-26T03:28:22.963Z,68.82
2022-11-26T03:30:51.134Z,81.72
2022-11-26T03:33:18.689Z,70.25
2022-11-26T03:35:47.359Z,77.05
2022-11-26T03:38:14.495Z,78.50
2022-11-26T03:40:41.685Z,86.93
2022-11-26T03:43:08.671Z,66.28
2022-11-26T03:45:35.608Z,93.15
2022-11-26T03:48:02.586Z,61.30
2022-11-26T03:50:29.656Z,79.45
2022-11-26T03:52:56.573Z,89.05
2022-11-26T03:55:23.564Z,92.63
2022-11-26T03:57:50.518Z,97.45
2022-11-26T04:00:18.004Z,87.85
2022-11-26T04:02:44.924Z,77.35
2022-11-26T04:05:11.907Z,105.80
2022-11-26T04:07:38.910Z,73.22
2022-11-26T04:10:06.511Z,87.38
2022-11-26T04:12:33.470Z,94.32
2022-11-26T04:15:00.319Z,80.15
2022-11-26T04:17:27.233Z,81.82
2022-11-26T04:19:54.665Z,76.70
2022-11-26T04:22:21.567Z,84.85
2022-11-26T04:24:48.477Z,96.95
2022-11-26T04:27:15.470Z,91.47
2022-11-26T04:29:42.566Z,73.05
2022-11-26T04:32:09.548Z,81.20
2022-11-26T04:34:36.723Z,82.05
2022-11-26T04:37:03.921Z,68.20
2022-11-26T04:39:30.882Z,83.20
2022-11-26T04:41:57.806Z,80.78
2022-11-26T04:44:24.817Z,78.28
2022-11-26T04:46:51.761Z,94.60
2022-11-26T04:49:18.749Z,102.63
2022-11-26T04:51:46.311Z,97.03
2022-11-26T04:54:13.488Z,97.80
2022-11-26T04:56:40.537Z,112.63
2022-11-26T04:59:08.964Z,91.63
2022-11-26T05:01:36.023Z,94.47
2022-11-26T05:04:03.060Z,107.05
2022-11-26T05:06:30.001Z,109.28
2022-11-26T05:08:57.008Z,93.18
2022-11-26T05:11:23.945Z,99.22
2022-11-26T05:13:50.866Z,103.63
2022-11-26T05:16:17.851Z,95.90
2022-11-26T05:18:44.815Z,89.07
2022-11-26T05:21:11.674Z,102.82
2022-11-26T05:23:38.688Z,77.38
2022-11-26T05:26:05.808Z,89.40
2022-11-26T05:28:32.716Z,103.68
2022-11-26T05:31:03.848Z,88.57
2022-11-26T05:33:31.054Z,91.13
2022-11-26T05:35:58.157Z,63.45
2022-11-26T05:38:25.130Z,74.22
2022-11-26T05:40:52.169Z,80.63
2022-11-26T05:43:19.086Z,77.32
2022-11-26T05:45:46.130Z,94.38
2022-11-26T05:48:13.145Z,83.38
2022-11-26T05:50:40.099Z,82.22
2022-11-26T05:53:07.047Z,72.68
2022-11-26T05:55:34.183Z,99.32
2022-11-26T05:58:01.164Z,80.65
2022-11-26T06:00:28.376Z,63.33
2022-11-26T06:02:55.371Z,68.53
2022-11-26T06:05:22.535Z,73.32
2022-11-26T06:07:50.033Z,68.45
2022-11-26T06:10:17.243Z,62.83
2022-11-26T06:12:47.120Z,72.35
2022-11-26T06:15:14.130Z,69.03
2022-11-26T06:17:41.091Z,69.00
2022-11-26T06:20:08.642Z,73.82
2022-11-26T06:22:39.843Z,68.90
2022-11-26T06:25:09.491Z,66.15
2022-11-26T06:27:37.123Z,63.67
2022-11-26T06:30:05.875Z,71.53
2022-11-26T06:32:32.903Z,70.38
2022-11-26T06:34:59.884Z,67.57
2022-11-26T06:37:26.831Z,58.00
2022-11-26T06:39:53.815Z,61.70
2022-11-26T06:42:20.804Z,63.45
2022-11-26T06:44:47.745Z,56.90
2022-11-26T06:47:15.161Z,58.97
2022-11-26T06:49:42.419Z,69.25
2022-11-26T06:52:09.391Z,67.90
2022-11-26T06:54:36.676Z,70.20
2022-11-26T06:57:03.867Z,79.20
2022-11-26T06:59:31.056Z,75.38
2022-11-26T07:01:58.264Z,72.97
2022-11-26T07:04:25.581Z,72.30
2022-11-26T07:06:52.495Z,71.53
2022-11-26T07:09:19.447Z,98.78
2022-11-26T07:11:46.905Z,78.65
2022-11-26T07:14:13.823Z,86.10
2022-11-26T07:16:40.846Z,62.33
2022-11-26T07:19:07.809Z,86.10
2022-11-26T07:21:34.764Z,74.70
2022-11-26T07:24:01.688Z,60.70
2022-11-26T07:26:29.247Z,70.43
2022-11-26T07:28:57.240Z,66.72
2022-11-26T07:31:24.781Z,51.35
2022-11-26T07:33:52.035Z,52.17
2022-11-26T07:36:26.911Z,71.30
2022-11-26T07:38:55.304Z,49.35
2022-11-26T07:41:22.319Z,58.55
2022-11-26T07:43:50.189Z,55.08
2022-11-26T07:46:20.081Z,52.58
2022-11-26T07:48:47.529Z,61.53
2022-11-26T07:51:19.553Z,55.28
2022-11-26T07:53:46.893Z,55.45
2022-11-26T07:56:14.263Z,54.47
2022-11-26T07:58:41.717Z,41.78
2022-11-26T08:01:10.610Z,58.55
2022-11-26T08:03:42.202Z,45.28
2022-11-26T08:06:10.968Z,44.08
2022-11-26T08:08:38.533Z,42.95
2022-11-26T08:11:14.187Z,38.75
2022-11-26T08:13:42.109Z,45.83
2022-11-26T08:16:10.030Z,42.20
2022-11-26T08:18:37.208Z,39.35
2022-11-26T08:21:04.441Z,43.53
2022-11-26T08:23:32.137Z,40.78
2022-11-26T08:26:21.506Z,43.50
2022-11-26T08:28:47.413Z,42.40
2022-11-26T08:31:16.184Z,44.33
2022-11-26T08:33:43.380Z,47.33
2022-11-26T08:36:11.358Z,47.55
2022-11-26T08:38:39.057Z,46.30
2022-11-26T08:41:08.325Z,42.78
2022-11-26T08:44:04.514Z,41.92
2022-11-26T08:46:23.472Z,42.85
2022-11-26T08:48:50.684Z,47.97
2022-11-26T08:51:17.700Z,45.08
2022-11-26T08:53:46.322Z,46.53
2022-11-26T08:56:14.250Z,46.00
2022-11-26T08:58:43.233Z,48.33
2022-11-26T09:01:11.613Z,43.65
2022-11-26T09:03:39.080Z,46.78
2022-11-26T09:06:07.499Z,54.55
2022-11-26T09:08:56.445Z,48.90
2022-11-26T09:11:24.452Z,48.70
2022-11-26T09:13:51.673Z,43.60
2022-11-26T09:16:18.637Z,42.15
2022-11-26T09:18:45.747Z,52.13
2022-11-26T09:21:12.692Z,49.72
2022-11-26T09:23:39.640Z,69.35
2022-11-26T09:26:06.839Z,55.42
2022-11-26T09:28:34.153Z,55.38
2022-11-26T09:31:02.369Z,47.05
2022-11-26T09:33:30.232Z,44.58
2022-11-26T09:36:08.650Z,60.05
2022-11-26T09:38:36.256Z,55.90
2022-11-26T09:41:27.725Z,37.90
2022-11-26T09:44:31.914Z,41.67
2022-11-26T09:47:16.729Z,48.97
2022-11-26T09:50:08.123Z,47.83
2022-11-26T09:53:03.328Z,41.20
2022-11-26T09:55:36.191Z,41.63
2022-11-26T09:58:26.520Z,45.35
2022-11-26T10:03:30.309Z,53.95
2022-11-26T10:06:10.845Z,46.13
2022-11-26T10:08:40.826Z,58.15
2022-11-26T10:11:28.816Z,49.17
2022-11-26T10:13:56.109Z,48.08
2022-11-26T10:16:30.134Z,43.60
2022-11-26T10:19:13.940Z,45.22
2022-11-26T10:21:59.857Z,46.60
2022-11-26T10:24:42.289Z,43.28
2022-11-26T10:27:18.611Z,43.15
2022-11-26T10:29:51.091Z,42.47
2022-11-26T10:32:27.948Z,41.22
2022-11-26T10:34:57.094Z,43.67
2022-11-26T10:37:29.256Z,45.25
2022-11-26T10:40:19.761Z,45.67
2022-11-26T10:43:08.785Z,45.03
2022-11-26T10:45:45.908Z,42.53
2022-11-26T10:48:31.738Z,45.17
2022-11-26T10:51:00.667Z,42.15
2022-11-26T10:53:30.121Z,42.72
2022-11-26T10:56:01.955Z,41.00
2022-11-26T10:58:38.168Z,39.72
2022-11-26T11:01:06.094Z,37.03
2022-11-26T11:06:36.437Z,45.42
2022-11-26T11:09:24.294Z,45.63
2022-11-26T11:12:11.108Z,42.97
2022-11-26T11:14:43.109Z,48.97
2022-11-26T11:17:37.113Z,43.67
2022-11-26T11:20:23.496Z,46.38
2022-11-26T11:22:57.646Z,47.95
2022-11-26T11:25:33.450Z,46.85
2022-11-26T11:28:22.197Z,46.88
2022-11-26T11:31:14.922Z,40.47
2022-11-26T11:33:42.889Z,40.45
2022-11-26T11:36:16.152Z,42.80
2022-11-26T11:38:52.854Z,42.55
2022-11-26T11:41:38.982Z,40.92
2022-11-26T11:44:17.512Z,42.05
2022-11-26T11:46:59.311Z,41.47
2022-11-26T11:49:32.337Z,45.25
2022-11-26T11:52:30.366Z,40.25
2022-11-26T11:55:06.344Z,43.10
2022-11-26T11:57:58.125Z,41.83
2022-11-26T12:00:37.666Z,41.38
2022-11-26T12:03:31.799Z,35.85
2022-11-26T12:06:27.965Z,35.47
2022-11-26T12:09:17.627Z,37.55
2022-11-26T12:12:19.976Z,39.25
2022-11-26T12:14:53.432Z,38.35
2022-11-26T12:17:48.059Z,38.10
2022-11-26T12:20:19.140Z,44.58
2022-11-26T12:22:54.255Z,41.67
2022-11-26T12:25:36.610Z,45.28
2022-11-26T12:28:20.101Z,46.72
2022-11-26T12:31:03.207Z,40.45
2022-11-26T12:33:50.247Z,43.67
2022-11-26T12:36:32.198Z,43.72
2022-11-26T12:39:19.165Z,61.70
2022-11-26T12:41:57.103Z,47.05
2022-11-26T12:44:37.505Z,47.42
2022-11-26T12:47:33.795Z,50.90
2022-11-26T12:50:18.551Z,45.50
2022-11-26T12:53:10.976Z,50.55
2022-11-26T12:55:50.377Z,42.13
2022-11-26T12:58:26.690Z,43.55
2022-11-26T13:00:55.161Z,38.83
2022-11-26T13:03:33.960Z,43.65
2022-11-26T13:06:08.363Z,49.38
2022-11-26T13:09:18.648Z,38.22
2022-11-26T13:11:48.585Z,41.67
2022-11-26T13:14:35.740Z,36.87
2022-11-26T13:17:15.853Z,37.35
2022-11-26T13:20:09.715Z,44.15
2022-11-26T13:23:00.857Z,46.10
2022-11-26T13:25:45.365Z,54.40
2022-11-26T13:28:23.169Z,44.88
2022-11-26T13:31:29.783Z,40.70
2022-11-26T13:34:06.182Z,37.72
2022-11-26T13:36:47.158Z,38.05
2022-11-26T13:39:51.182Z,42.33
2022-11-26T13:42:49.939Z,36.97
2022-11-26T13:45:32.149Z,38.03
2022-11-26T13:48:10.092Z,36.45
2022-11-26T13:51:05.444Z,47.58
2022-11-26T13:53:56.950Z,39.75
2022-11-26T13:56:26.582Z,47.00
2022-11-26T13:58:58.299Z,46.17
2022-11-26T14:01:34.047Z,40.90
2022-11-26T14:04:01.340Z,40.58
2022-11-26T14:06:28.446Z,44.08
2022-11-26T14:08:56.231Z,43.58
2022-11-26T14:11:42.417Z,41.80
2022-11-26T14:14:24.597Z,42.60
2022-11-26T14:17:00.795Z,46.28
2022-11-26T14:19:40.042Z,56.78
2022-11-26T14:22:08.891Z,48.47
2022-11-26T14:25:12.378Z,47.88
2022-11-26T14:27:55.481Z,45.90
2022-11-26T14:30:24.740Z,41.08
2022-11-26T14:33:04.013Z,42.67
2022-11-26T14:35:36.574Z,43.65
2022-11-26T14:38:05.768Z,37.75
2022-11-26T14:40:38.380Z,58.08
2022-11-26T14:43:22.644Z,46.67
2022-11-26T14:46:02.818Z,48.47
2022-11-26T14:48:31.175Z,53.63
2022-11-26T14:51:00.021Z,47.95
2022-11-26T14:53:30.267Z,45.95
2022-11-26T14:55:57.502Z,53.90
2022-11-26T14:58:31.454Z,70.88
2022-11-26T15:01:07.469Z,51.28
2022-11-26T15:03:35.260Z,49.97
2022-11-26T15:06:02.300Z,42.78
2022-11-26T15:08:29.291Z,41.97
2022-11-26T15:11:05.657Z,49.95
2022-11-26T15:13:38.963Z,47.65
2022-11-26T15:16:31.144Z,50.03
2022-11-26T15:18:58.907Z,47.55
2022-11-26T15:21:27.124Z,43.17
2022-11-26T15:23:57.220Z,42.88
2022-11-26T15:26:26.425Z,48.15
2022-11-26T15:28:56.137Z,52.22
2022-11-26T15:31:23.154Z,57.78
2022-11-26T15:33:51.807Z,47.92
2022-11-26T15:36:20.004Z,52.85
2022-11-26T15:39:03.360Z,58.50
2022-11-26T15:41:30.546Z,50.28
2022-11-26T15:44:01.788Z,50.33
2022-11-26T15:46:32.055Z,48.17
2022-11-26T15:49:07.571Z,49.17
2022-11-26T15:51:38.603Z,50.97
2022-11-26T15:54:18.466Z,55.45
2022-11-26T15:56:49.775Z,54.10
2022-11-26T15:59:17.525Z,54.42
2022-11-26T16:01:46.196Z,52.58
2022-11-26T16:04:37.467Z,48.80
2022-11-26T16:07:16.066Z,54.50
2022-11-26T16:09:44.396Z,57.72
2022-11-26T16:12:32.186Z,53.90
2022-11-26T16:15:17.510Z,55.30
2022-11-26T16:17:44.828Z,62.58
2022-11-26T16:20:23.810Z,52.20
2022-11-26T16:23:01.654Z,61.85
2022-11-26T16:25:31.168Z,58.53
2022-11-26T16:28:18.399Z,61.33
2022-11-26T16:30:45.492Z,54.65
2022-11-26T16:33:12.498Z,49.08
2022-11-26T16:35:45.609Z,50.95
2022-11-26T16:38:21.666Z,61.00
2022-11-26T16:40:49.372Z,57.03
2022-11-26T16:43:16.458Z,76.00
2022-11-26T16:45:43.948Z,111.45
2022-11-26T16:48:37.345Z,90.10
2022-11-26T16:51:04.303Z,90.10
2022-11-26T16:53:31.213Z,81.65
2022-11-26T16:55:58.241Z,108.70
2022-11-26T16:58:36.849Z,107.97
2022-11-26T17:01:04.315Z,49.72
2022-11-26T17:03:33.559Z,44.58
2022-11-26T17:06:13.791Z,59.42
2022-11-26T17:08:45.015Z,51.05
2022-11-26T17:11:15.065Z,74.03
2022-11-26T17:13:42.158Z,70.82
2022-11-26T17:16:15.977Z,58.45
2022-11-26T17:18:43.615Z,38.10
2022-11-26T17:21:10.838Z,43.35
2022-11-26T17:23:37.833Z,41.85
2022-11-26T17:26:21.289Z,51.15
2022-11-26T17:28:48.961Z,54.42
2022-11-26T17:31:15.968Z,45.20
2022-11-26T17:33:43.022Z,59.65
2022-11-26T17:36:19.240Z,50.85
2022-11-26T17:38:46.911Z,51.00
2022-11-26T17:41:14.869Z,45.05
2022-11-26T17:43:42.223Z,44.33
2022-11-26T17:46:17.940Z,33.08
2022-11-26T17:48:45.143Z,35.35
2022-11-26T17:51:13.681Z,35.75
2022-11-26T17:53:41.648Z,36.65
2022-11-26T17:56:19.701Z,37.95
2022-11-26T17:58:46.913Z,37.85
2022-11-26T18:01:15.017Z,35.47
2022-11-26T18:03:43.326Z,38.20
2022-11-26T18:06:18.174Z,34.85
2022-11-26T18:08:45.902Z,37.40
2022-11-26T18:11:14.430Z,40.75
2022-11-26T18:13:41.781Z,36.08
2022-11-26T18:16:08.754Z,40.15
2022-11-26T18:18:35.716Z,43.83
2022-11-26T18:21:02.659Z,39.05
2022-11-26T18:23:29.616Z,38.97
2022-11-26T18:25:56.725Z,38.17
2022-11-26T18:28:23.749Z,39.38
2022-11-26T18:30:50.735Z,34.65
2022-11-26T18:33:17.697Z,37.45
2022-11-26T18:35:44.867Z,36.90
2022-11-26T18:38:11.848Z,34.85
2022-11-26T18:40:38.831Z,35.58
2022-11-26T18:43:06.309Z,34.63
2022-11-26T18:45:33.249Z,34.80
2022-11-26T18:48:00.729Z,34.75
2022-11-26T18:50:27.834Z,35.22
2022-11-26T18:52:58.675Z,33.25
2022-11-26T18:55:26.125Z,36.00
2022-11-26T18:57:53.247Z,35.70
2022-11-26T19:00:20.539Z,33.58
2022-11-26T19:02:47.840Z,34.15
2022-11-26T19:05:15.392Z,30.02
2022-11-26T19:07:42.453Z,32.45
2022-11-26T19:10:10.146Z,34.25
2022-11-26T19:12:37.109Z,32.22
2022-11-26T19:15:04.482Z,33.10
2022-11-26T19:17:31.538Z,32.03
2022-11-26T19:19:58.514Z,30.00
2022-11-26T19:22:25.479Z,30.33
2022-11-26T19:24:52.414Z,31.48
2022-11-26T19:27:19.562Z,30.25
2022-11-26T19:29:46.513Z,28.73
2022-11-26T19:32:13.456Z,28.63
2022-11-26T19:34:40.425Z,29.73
2022-11-26T19:37:08.088Z,29.23
2022-11-26T19:39:35.032Z,28.50
2022-11-26T19:42:02.123Z,30.83
2022-11-26T19:44:29.095Z,29.90
2022-11-26T19:46:56.063Z,30.80
2022-11-26T19:49:23.491Z,30.67
2022-11-26T19:51:50.437Z,28.77
2022-11-26T19:54:17.697Z,30.20
2022-11-26T19:56:46.237Z,32.25
2022-11-26T19:59:13.180Z,32.55
2022-11-26T20:01:40.287Z,38.30
2022-11-26T20:04:09.016Z,43.83
2022-11-26T20:06:36.643Z,59.30
2022-11-26T20:09:05.044Z,63.72
2022-11-26T20:11:32.455Z,54.65
2022-11-26T20:13:59.846Z,41.08
2022-11-26T20:16:31.914Z,42.90
2022-11-26T20:18:59.814Z,41.00
2022-11-26T20:21:29.883Z,40.97
2022-11-26T20:23:59.029Z,40.67
2022-11-26T20:26:29.594Z,37.08
2022-11-26T20:28:59.869Z,38.90
2022-11-26T20:31:27.111Z,41.53
2022-11-26T20:33:54.700Z,41.60
2022-11-26T20:36:23.385Z,37.80
2022-11-26T20:38:54.734Z,41.20
2022-11-26T20:41:22.464Z,40.33
2022-11-26T20:43:54.896Z,43.15
2022-11-26T20:46:25.953Z,40.15
2022-11-26T20:48:53.422Z,41.38
2022-11-26T20:51:22.432Z,41.97
2022-11-26T20:53:50.982Z,42.38
2022-11-26T20:56:22.427Z,46.45
2022-11-26T20:58:50.386Z,46.35
2022-11-26T21:01:20.423Z,44.67
2022-11-26T21:03:47.898Z,45.88
2022-11-26T21:06:16.304Z,47.13
2022-11-26T21:08:43.276Z,45.58
2022-11-26T21:11:11.178Z,46.40
2022-11-26T21:13:39.239Z,47.55
2022-11-26T21:16:08.385Z,50.33
2022-11-26T21:18:35.471Z,52.35
2022-11-26T21:21:11.462Z,51.97
2022-11-26T21:23:39.774Z,50.70
2022-11-26T21:26:08.600Z,49.95
2022-11-26T21:28:35.836Z,48.40
2022-11-26T21:31:12.009Z,51.70
2022-11-26T21:33:39.033Z,52.92
2022-11-26T21:36:11.413Z,54.30
2022-11-26T21:38:38.818Z,51.95
2022-11-26T21:41:07.132Z,50.70
2022-11-26T21:43:34.276Z,50.35
2022-11-26T21:46:05.240Z,49.25
2022-11-26T21:48:32.699Z,50.55
2022-11-26T21:50:59.748Z,50.30
2022-11-26T21:53:26.705Z,47.47
2022-11-26T21:55:53.785Z,47.85
2022-11-26T21:58:20.707Z,49.80
2022-11-26T22:00:47.688Z,47.10
2022-11-26T22:03:14.508Z,45.67
2022-11-26T22:05:42.140Z,49.47
2022-11-26T22:08:09.965Z,47.50
2022-11-26T22:10:37.668Z,48.65
2022-11-26T22:13:04.692Z,47.95
2022-11-26T22:15:31.636Z,48.70
2022-11-26T22:17:58.684Z,48.33
2022-11-26T22:20:25.660Z,48.63
2022-11-26T22:22:52.633Z,49.20
2022-11-26T22:25:19.592Z,49.22
2022-11-26T22:27:46.544Z,47.60
2022-11-26T22:30:14.656Z,48.28
2022-11-26T22:32:41.586Z,48.10
2022-11-26T22:35:09.262Z,50.60
2022-11-26T22:37:36.205Z,47.40
2022-11-26T22:40:04.124Z,45.53
2022-11-26T22:42:31.109Z,49.15
2022-11-26T22:44:58.010Z,45.38
2022-11-26T22:47:24.936Z,45.60
2022-11-26T22:49:52.000Z,50.10
2022-11-26T22:52:19.035Z,51.78
2022-11-26T22:54:46.053Z,47.95
2022-11-26T22:57:13.070Z,46.40
2022-11-26T22:59:40.233Z,46.35
2022-11-26T23:02:07.439Z,46.85
2022-11-26T23:04:34.375Z,47.38
2022-11-26T23:07:01.283Z,44.15
2022-11-26T23:09:28.267Z,44.83
2022-11-26T23:11:55.203Z,46.22
2022-11-26T23:14:22.181Z,40.85
2022-11-26T23:16:49.190Z,41.35
2022-11-26T23:19:16.804Z,43.78
2022-11-26T23:21:47.137Z,39.03
2022-11-26T23:24:15.649Z,43.53
2022-11-26T23:26:43.237Z,44.15
2022-11-26T23:29:10.931Z,43.38
2022-11-26T23:31:41.029Z,44.85
2022-11-26T23:34:08.897Z,43.03
2022-11-26T23:36:36.569Z,46.17
2022-11-26T23:39:05.063Z,44.00
2022-11-26T23:41:32.102Z,45.08
2022-11-26T23:43:59.081Z,47.80
2022-11-26T23:46:29.257Z,46.67
2022-11-26T23:48:56.320Z,44.03
2022-11-26T23:51:25.130Z,48.17
2022-11-26T23:53:52.872Z,45.90
2022-11-26T23:56:26.832Z,46.00
2022-11-26T23:58:55.770Z,46.80
